createdAt,value
2018-01-04T00:00:50.761Z,15.30
2018-01-04T00:03:18.517Z,14.47
2018-01-04T00:05:46.346Z,14.80
2018-01-04T00:08:14.184Z,15.87
2018-01-04T00:10:42.044Z,14.53
2018-01-04T00:13:09.902Z,14.33
2018-01-04T00:15:37.703Z,15.30
2018-01-04T00:18:05.477Z,14.40
2018-01-04T00:20:33.244Z,16.00
2018-01-04T00:23:00.987Z,15.30
2018-01-04T00:25:28.736Z,15.27
2018-01-04T00:27:56.509Z,17.07
2018-01-04T00:30:25.043Z,14.80
2018-01-04T00:32:52.863Z,15.33
2018-01-04T00:35:20.647Z,17.00
2018-01-04T00:37:48.405Z,17.70
2018-01-04T00:40:16.279Z,16.20
2018-01-04T00:42:44.093Z,16.27
2018-01-04T00:45:11.900Z,15.97
2018-01-04T00:47:39.729Z,15.70
2018-01-04T00:50:07.554Z,17.37
2018-01-04T00:52:35.401Z,16.70
2018-01-04T00:55:03.212Z,16.90
2018-01-04T00:57:31.013Z,16.03
2018-01-04T00:59:58.889Z,15.80
2018-01-04T01:02:26.675Z,17.80
2018-01-04T01:04:54.454Z,19.63
2018-01-04T01:07:22.208Z,20.13
2018-01-04T01:09:49.948Z,19.27
2018-01-04T01:12:17.762Z,18.50
2018-01-04T01:14:46.860Z,17.70
2018-01-04T01:17:14.738Z,17.00
2018-01-04T01:19:42.565Z,18.30
2018-01-04T01:22:11.194Z,19.20
2018-01-04T01:24:38.956Z,19.93
2018-01-04T01:27:06.787Z,18.60
2018-01-04T01:29:34.527Z,19.10
2018-01-04T01:32:02.379Z,19.20
2018-01-04T01:34:30.218Z,19.53
2018-01-04T01:36:58.062Z,17.90
2018-01-04T01:39:25.825Z,17.60
2018-01-04T01:41:53.645Z,18.50
2018-01-04T01:44:21.412Z,18.00
2018-01-04T01:46:49.238Z,18.23
2018-01-04T01:49:17.109Z,18.07
2018-01-04T01:51:44.877Z,19.30
2018-01-04T01:54:12.661Z,17.77
2018-01-04T01:56:40.552Z,17.40
2018-01-04T01:59:08.337Z,17.70
2018-01-04T02:01:36.122Z,16.77
2018-01-04T02:04:03.969Z,17.50
2018-01-04T02:06:31.752Z,17.90
2018-01-04T02:09:06.119Z,16.70
2018-01-04T02:11:33.962Z,17.27
2018-01-04T02:14:01.801Z,16.70
2018-01-04T02:16:29.687Z,16.03
2018-01-04T02:19:09.337Z,18.00
2018-01-04T02:21:48.833Z,18.53
2018-01-04T02:24:28.427Z,16.80
2018-01-04T02:27:08.086Z,15.90
2018-01-04T02:29:47.626Z,16.40
2018-01-04T02:32:27.053Z,16.70
2018-01-04T02:35:06.673Z,16.13
2018-01-04T02:37:46.273Z,15.60
2018-01-04T02:40:25.727Z,17.90
2018-01-04T02:43:05.350Z,16.30
2018-01-04T02:45:53.915Z,15.70
2018-01-04T02:48:21.664Z,15.33
2018-01-04T02:50:49.475Z,14.67
2018-01-04T02:53:17.288Z,16.37
2018-01-04T02:55:45.143Z,14.17
2018-01-04T02:58:12.945Z,14.27
2018-01-04T03:00:40.733Z,13.63
2018-01-04T03:03:08.619Z,13.47
2018-01-04T03:05:36.366Z,13.10
2018-01-04T03:08:04.194Z,12.63
2018-01-04T03:10:32.023Z,11.90
2018-01-04T03:12:59.861Z,12.10
2018-01-04T03:15:27.642Z,12.10
2018-01-04T03:17:55.464Z,10.57
2018-01-04T03:20:23.213Z,10.20
2018-01-04T03:22:57.449Z,9.60
2018-01-04T03:25:30.763Z,10.63
2018-01-04T03:28:05.024Z,10.20
2018-01-04T03:30:38.329Z,10.60
2018-01-04T03:33:11.750Z,10.13
2018-01-04T03:35:45.065Z,9.50
2018-01-04T03:38:18.515Z,10.47
2018-01-04T03:40:51.815Z,8.70
2018-01-04T03:43:25.112Z,8.17
2018-01-04T03:45:58.480Z,8.10
2018-01-04T03:48:28.030Z,7.87
2018-01-04T03:51:02.130Z,8.43
2018-01-04T03:53:36.282Z,7.90
2018-01-04T03:56:09.703Z,8.07
2018-01-04T03:58:43.042Z,7.70
2018-01-04T04:01:16.535Z,7.37
2018-01-04T04:03:44.345Z,6.83
2018-01-04T04:06:17.783Z,7.47
2018-01-04T04:08:45.588Z,6.17
2018-01-04T04:11:13.426Z,6.73
2018-01-04T04:13:41.220Z,6.23
2018-01-04T04:16:09.041Z,6.40
2018-01-04T04:18:36.835Z,6.07
2018-01-04T04:21:04.565Z,6.40
2018-01-04T04:23:32.381Z,6.63
2018-01-04T04:26:00.183Z,5.50
2018-01-04T04:28:27.986Z,6.17
2018-01-04T04:30:55.765Z,5.90
2018-01-04T04:33:23.553Z,6.00
2018-01-04T04:35:51.380Z,5.50
2018-01-04T04:38:19.128Z,5.00
2018-01-04T04:40:46.875Z,5.20
2018-01-04T04:43:14.681Z,4.93
2018-01-04T04:45:42.502Z,5.10
2018-01-04T04:48:11.009Z,4.77
2018-01-04T04:50:38.822Z,5.20
2018-01-04T04:53:06.642Z,5.23
2018-01-04T04:55:34.406Z,5.00
2018-01-04T04:58:02.236Z,4.70
2018-01-04T05:00:30.051Z,4.30
2018-01-04T05:02:57.873Z,5.10
2018-01-04T05:05:25.691Z,4.10
2018-01-04T05:07:53.478Z,5.00
2018-01-04T05:10:21.201Z,4.57
2018-01-04T05:12:49.749Z,3.67
2018-01-04T05:15:17.576Z,3.60
2018-01-04T05:17:45.407Z,4.07
2018-01-04T05:20:13.172Z,3.43
2018-01-04T05:22:41.011Z,3.10
2018-01-04T05:25:08.804Z,2.90
2018-01-04T05:27:36.576Z,2.57
2018-01-04T05:30:04.447Z,2.20
2018-01-04T05:32:33.029Z,3.03
2018-01-04T05:35:00.813Z,2.97
2018-01-04T05:37:28.597Z,2.50
2018-01-04T05:39:56.348Z,2.10
2018-01-04T05:42:24.121Z,2.70
2018-01-04T05:44:51.969Z,2.10
2018-01-04T05:47:20.512Z,2.23
2018-01-04T05:49:48.287Z,1.53
2018-01-04T05:52:16.030Z,2.20
2018-01-04T05:54:43.844Z,2.40
2018-01-04T05:57:11.658Z,2.10
2018-01-04T05:59:39.421Z,2.00
2018-01-04T06:02:07.239Z,2.20
2018-01-04T06:04:35.051Z,2.10
2018-01-04T06:07:02.859Z,3.10
2018-01-04T06:09:30.748Z,2.87
2018-01-04T06:11:58.604Z,2.20
2018-01-04T06:14:26.346Z,1.90
2018-01-04T06:16:54.075Z,2.00
2018-01-04T06:19:21.885Z,1.77
2018-01-04T06:21:49.677Z,1.67
2018-01-04T06:24:17.488Z,1.47
2018-01-04T06:26:45.314Z,2.30
2018-01-04T06:29:13.122Z,1.70
2018-01-04T06:31:40.980Z,1.83
2018-01-04T06:34:08.749Z,2.20
2018-01-04T06:36:36.501Z,1.93
2018-01-04T06:39:04.381Z,1.70
2018-01-04T06:41:32.871Z,1.63
2018-01-04T06:44:00.633Z,2.00
2018-01-04T06:46:28.456Z,1.87
2018-01-04T06:48:56.269Z,1.57
2018-01-04T06:51:24.108Z,1.40
2018-01-04T06:53:51.903Z,1.67
2018-01-04T06:56:19.678Z,1.90
2018-01-04T06:58:47.492Z,1.80
2018-01-04T07:01:15.300Z,2.13
2018-01-04T07:03:43.140Z,1.80
2018-01-04T07:06:10.940Z,2.80
2018-01-04T07:08:38.787Z,2.00
2018-01-04T07:11:06.562Z,2.87
2018-01-04T07:13:35.128Z,2.37
2018-01-04T07:16:02.856Z,2.50
2018-01-04T07:18:30.670Z,2.40
2018-01-04T07:20:58.432Z,2.43
2018-01-04T07:23:26.264Z,2.50
2018-01-04T07:25:54.082Z,2.40
2018-01-04T07:28:22.707Z,2.70
2018-01-04T07:30:51.283Z,2.30
2018-01-04T07:33:19.115Z,2.50
2018-01-04T07:35:46.901Z,4.97
2018-01-04T07:38:14.785Z,8.90
2018-01-04T07:40:42.620Z,3.50
2018-01-04T07:43:10.453Z,3.60
2018-01-04T07:45:38.316Z,3.40
2018-01-04T07:48:06.186Z,3.30
2018-01-04T07:50:33.955Z,4.27
2018-01-04T07:53:01.758Z,3.57
2018-01-04T07:55:29.617Z,24.80
2018-01-04T07:57:57.361Z,34.33
2018-01-04T08:00:25.163Z,13.70
2018-01-04T08:02:52.936Z,12.73
2018-01-04T08:05:20.776Z,8.60
2018-01-04T08:07:48.549Z,5.27
2018-01-04T08:10:16.352Z,5.37
2018-01-04T08:12:44.875Z,4.00
2018-01-04T08:15:12.643Z,2.67
2018-01-04T08:17:40.471Z,3.60
2018-01-04T08:20:08.306Z,3.10
2018-01-04T08:22:36.665Z,3.90
2018-01-04T08:25:04.514Z,3.70
2018-01-04T08:27:33.087Z,2.97
2018-01-04T08:30:00.983Z,4.20
2018-01-04T08:32:28.787Z,2.93
2018-01-04T08:34:56.548Z,2.60
2018-01-04T08:37:24.315Z,4.23
2018-01-04T08:39:52.116Z,3.33
2018-01-04T08:42:19.878Z,3.00
2018-01-04T08:44:47.671Z,2.60
2018-01-04T08:47:15.441Z,3.40
2018-01-04T08:49:43.259Z,3.50
2018-01-04T08:52:11.086Z,5.00
2018-01-04T08:54:38.911Z,3.40
2018-01-04T08:57:07.478Z,4.43
2018-01-04T08:59:35.312Z,4.17
2018-01-04T09:02:03.170Z,4.23
2018-01-04T09:04:30.935Z,4.73
2018-01-04T09:06:58.796Z,3.17
2018-01-04T09:09:26.561Z,4.20
2018-01-04T09:11:54.384Z,5.60
2018-01-04T09:14:22.202Z,18.20
2018-01-04T09:16:49.965Z,4.50
2018-01-04T09:19:17.710Z,4.27
2018-01-04T09:21:45.458Z,4.57
2018-01-04T09:24:13.246Z,4.73
2018-01-04T09:26:48.108Z,7.40
2018-01-04T09:29:15.943Z,4.80
2018-01-04T09:31:44.442Z,4.43
2018-01-04T09:34:12.189Z,3.57
2018-01-04T09:36:40.011Z,4.90
2018-01-04T09:39:07.842Z,9.03
2018-01-04T09:41:35.615Z,4.20
2018-01-04T09:44:03.438Z,7.17
2018-01-04T09:46:31.275Z,5.77
2018-01-04T09:48:59.028Z,4.50
2018-01-04T09:51:26.810Z,5.83
2018-01-04T09:53:54.652Z,3.87
2018-01-04T09:56:22.480Z,4.90
2018-01-04T09:58:50.223Z,4.50
2018-01-04T10:01:19.035Z,6.40
2018-01-04T10:03:46.652Z,5.70
2018-01-04T10:06:14.454Z,6.27
2018-01-04T10:08:42.276Z,4.60
2018-01-04T10:11:10.012Z,4.67
2018-01-04T10:13:37.774Z,5.30
2018-01-04T10:16:05.555Z,7.17
2018-01-04T10:18:33.316Z,6.33
2018-01-04T10:21:01.082Z,5.80
2018-01-04T10:23:28.852Z,6.30
2018-01-04T10:25:56.686Z,5.97
2018-01-04T10:28:24.442Z,7.30
2018-01-04T10:30:52.299Z,6.43
2018-01-04T10:33:20.062Z,6.47
2018-01-04T10:35:47.865Z,6.90
2018-01-04T10:38:15.696Z,7.43
2018-01-04T10:40:43.550Z,6.20
2018-01-04T10:43:11.350Z,8.57
2018-01-04T10:45:39.199Z,7.07
2018-01-04T10:48:06.965Z,6.30
2018-01-04T10:50:34.702Z,5.87
2018-01-04T10:53:02.514Z,6.50
2018-01-04T10:55:30.307Z,6.60
2018-01-04T10:57:58.144Z,6.17
2018-01-04T11:00:25.973Z,6.33
2018-01-04T11:02:53.829Z,6.07
2018-01-04T11:05:22.428Z,6.93
2018-01-04T11:07:50.276Z,8.17
2018-01-04T11:10:18.799Z,6.90
2018-01-04T11:12:46.602Z,7.13
2018-01-04T11:15:14.420Z,8.67
2018-01-04T11:17:42.295Z,8.63
2018-01-04T11:20:10.161Z,8.83
2018-01-04T11:22:37.996Z,10.27
2018-01-04T11:25:05.774Z,8.50
2018-01-04T11:27:33.598Z,10.10
2018-01-04T11:30:01.358Z,9.50
2018-01-04T11:32:29.249Z,10.20
2018-01-04T11:34:57.067Z,10.37
2018-01-04T11:37:24.877Z,9.53
2018-01-04T11:39:52.707Z,10.47
2018-01-04T11:42:20.514Z,9.03
2018-01-04T11:44:48.388Z,8.37
2018-01-04T11:47:16.193Z,10.50
2018-01-04T11:49:43.997Z,10.20
2018-01-04T11:52:11.846Z,9.23
2018-01-04T11:54:39.604Z,8.50
2018-01-04T11:57:07.424Z,9.60
2018-01-04T11:59:35.167Z,9.43
2018-01-04T12:02:02.991Z,8.10
2018-01-04T12:04:31.573Z,13.03
2018-01-04T12:06:59.386Z,10.00
2018-01-04T12:09:28.015Z,10.23
2018-01-04T12:11:55.763Z,10.17
2018-01-04T12:14:23.565Z,8.90
2018-01-04T12:16:51.331Z,8.60
2018-01-04T12:19:19.127Z,8.60
2018-01-04T12:21:46.865Z,8.13
2018-01-04T12:24:14.666Z,9.40
2018-01-04T12:26:42.494Z,9.30
2018-01-04T12:29:11.209Z,8.57
2018-01-04T12:31:39.899Z,8.43
2018-01-04T12:34:07.709Z,7.80
2018-01-04T12:36:35.449Z,7.77
2018-01-04T12:39:03.245Z,8.63
2018-01-04T12:41:31.050Z,8.63
2018-01-04T12:43:58.840Z,8.70
2018-01-04T12:46:26.652Z,8.40
2018-01-04T12:48:54.443Z,7.30
2018-01-04T12:51:22.167Z,6.17
2018-01-04T12:53:49.992Z,7.70
2018-01-04T12:56:17.743Z,6.73
2018-01-04T12:58:45.540Z,6.90
2018-01-04T13:01:13.345Z,7.00
2018-01-04T13:03:41.160Z,6.43
2018-01-04T13:06:08.946Z,7.20
2018-01-04T13:08:36.713Z,6.10
2018-01-04T13:11:04.560Z,7.00
2018-01-04T13:13:32.327Z,6.97
2018-01-04T13:16:00.172Z,9.07
2018-01-04T13:18:27.984Z,8.00
2018-01-04T13:20:55.728Z,8.23
2018-01-04T13:23:23.473Z,6.77
2018-01-04T13:25:51.239Z,7.80
2018-01-04T13:28:18.989Z,8.87
2018-01-04T13:30:46.785Z,8.13
2018-01-04T13:33:14.546Z,8.33
2018-01-04T13:35:42.348Z,8.90
2018-01-04T13:38:10.150Z,8.80
2018-01-04T13:40:37.922Z,9.73
2018-01-04T13:43:05.723Z,9.60
2018-01-04T13:45:34.245Z,10.13
2018-01-04T13:48:01.994Z,10.80
2018-01-04T13:50:29.813Z,11.13
2018-01-04T13:52:57.639Z,10.30
2018-01-04T13:55:25.440Z,10.33
2018-01-04T13:57:53.208Z,10.07
2018-01-04T14:00:20.981Z,9.50
2018-01-04T14:02:48.722Z,11.07
2018-01-04T14:05:16.535Z,8.93
2018-01-04T14:07:45.045Z,10.73
2018-01-04T14:10:12.803Z,11.37
2018-01-04T14:12:40.635Z,10.80
2018-01-04T14:15:08.395Z,10.73
2018-01-04T14:17:36.214Z,11.07
2018-01-04T14:20:04.127Z,10.60
2018-01-04T14:22:31.881Z,11.27
2018-01-04T14:24:59.694Z,11.50
2018-01-04T14:27:27.467Z,11.43
2018-01-04T14:29:55.261Z,12.50
2018-01-04T14:32:23.061Z,13.10
2018-01-04T14:34:50.894Z,11.00
2018-01-04T14:37:18.694Z,11.57
2018-01-04T14:39:46.489Z,12.30
2018-01-04T14:42:15.049Z,12.07
2018-01-04T14:44:42.832Z,11.70
2018-01-04T14:47:10.617Z,12.00
2018-01-04T14:49:38.432Z,13.50
2018-01-04T14:52:06.189Z,14.97
2018-01-04T14:54:34.016Z,12.47
2018-01-04T14:57:02.591Z,13.20
2018-01-04T14:59:30.333Z,13.33
2018-01-04T15:01:58.163Z,12.40
2018-01-04T15:04:25.942Z,13.37
2018-01-04T15:06:53.695Z,13.63
2018-01-04T15:09:21.489Z,13.13
2018-01-04T15:11:49.289Z,13.30
2018-01-04T15:14:17.098Z,13.60
2018-01-04T15:16:44.875Z,12.40
2018-01-04T15:19:12.695Z,12.20
2018-01-04T15:21:40.501Z,12.43
2018-01-04T15:24:08.326Z,12.50
2018-01-04T15:26:36.083Z,16.40
2018-01-04T15:29:03.853Z,18.00
2018-01-04T15:31:31.601Z,18.00
2018-01-04T15:33:59.360Z,16.93
2018-01-04T15:36:27.114Z,16.13
2018-01-04T15:38:54.921Z,16.47
2018-01-04T15:41:22.773Z,17.73
2018-01-04T15:43:50.551Z,17.77
2018-01-04T15:46:18.370Z,16.60
2018-01-04T15:48:46.183Z,17.80
2018-01-04T15:51:13.973Z,15.50
2018-01-04T15:53:41.736Z,16.67
2018-01-04T15:56:09.579Z,14.80
2018-01-04T15:58:37.336Z,14.77
2018-01-04T16:01:05.093Z,16.47
2018-01-04T16:03:32.883Z,14.63
2018-01-04T16:06:00.661Z,17.97
2018-01-04T16:08:28.476Z,16.30
2018-01-04T16:10:56.248Z,15.73
2018-01-04T16:13:24.014Z,15.83
2018-01-04T16:15:51.804Z,14.67
2018-01-04T16:18:19.590Z,14.83
2018-01-04T16:20:47.347Z,15.30
2018-01-04T16:23:15.094Z,15.03
2018-01-04T16:25:42.893Z,16.40
2018-01-04T16:28:10.680Z,14.40
2018-01-04T16:30:39.182Z,17.23
2018-01-04T16:33:06.997Z,17.00
2018-01-04T16:35:34.771Z,14.63
2018-01-04T16:38:03.272Z,16.53
2018-01-04T16:40:30.998Z,16.43
2018-01-04T16:42:58.834Z,16.23
2018-01-04T16:45:27.459Z,17.77
2018-01-04T16:47:55.195Z,19.27
2018-01-04T16:50:23.001Z,16.60
2018-01-04T16:52:50.826Z,17.13
2018-01-04T16:55:18.606Z,18.10
2018-01-04T16:57:46.382Z,15.80
2018-01-04T17:00:14.232Z,17.80
2018-01-04T17:23:39.405Z,22.20
2018-01-04T17:26:08.143Z,19.77
2018-01-04T17:28:36.055Z,20.20
2018-01-04T17:31:03.876Z,20.07
2018-01-04T17:33:31.742Z,20.33
2018-01-04T17:36:00.569Z,22.27
2018-01-04T17:38:29.068Z,20.43
2018-01-04T17:40:56.948Z,19.37
2018-01-04T17:43:24.868Z,22.90
2018-01-04T17:45:52.783Z,22.10
2018-01-04T17:48:20.721Z,22.60
2018-01-04T17:50:48.619Z,22.50
2018-01-04T17:53:16.459Z,21.63
2018-01-04T17:55:45.124Z,22.60
2018-01-04T17:58:12.947Z,22.10
2018-01-04T18:00:40.755Z,23.20
2018-01-04T18:03:08.688Z,23.37
2018-01-04T18:05:36.603Z,23.47
2018-01-04T18:08:04.483Z,24.10
2018-01-04T18:10:32.495Z,24.60
2018-01-04T18:13:00.406Z,24.23
2018-01-04T18:15:28.279Z,24.60
2018-01-04T18:17:56.252Z,24.37
2018-01-04T18:20:24.160Z,25.70
2018-01-04T18:22:53.282Z,25.37
2018-01-04T18:25:22.320Z,24.17
2018-01-04T18:27:51.058Z,25.30
2018-01-04T18:30:18.853Z,26.10
2018-01-04T18:32:47.424Z,24.87
2018-01-04T18:35:15.256Z,24.77
2018-01-04T18:37:43.178Z,25.70
2018-01-04T18:40:11.274Z,25.90
2018-01-04T18:42:39.140Z,23.67
2018-01-04T18:45:07.045Z,23.67
2018-01-04T18:47:34.940Z,25.57
2018-01-04T18:50:02.870Z,24.67
2018-01-04T18:52:31.480Z,25.40
2018-01-04T18:54:59.369Z,24.97
2018-01-04T18:57:28.009Z,25.20
2018-01-04T18:59:56.666Z,26.17
2018-01-04T19:02:24.602Z,25.40
2018-01-04T19:04:52.496Z,27.10
2018-01-04T19:07:20.387Z,27.00
2018-01-04T19:09:48.256Z,26.30
2018-01-04T19:12:16.143Z,26.70
2018-01-04T19:14:45.322Z,25.60
2018-01-04T19:17:13.262Z,27.07
2018-01-04T19:19:41.196Z,25.60
2018-01-04T19:22:09.888Z,26.30
2018-01-04T19:24:37.777Z,26.37
2018-01-04T19:27:05.658Z,25.80
2018-01-04T19:29:33.521Z,26.20
2018-01-04T19:32:01.345Z,26.90
2018-01-04T19:34:29.272Z,24.93
2018-01-04T19:36:57.168Z,26.87
2018-01-04T19:39:25.029Z,26.70
2018-01-04T19:41:52.953Z,27.00
2018-01-04T19:44:20.886Z,28.90
2018-01-04T19:46:48.781Z,27.10
2018-01-04T19:49:16.640Z,26.30
2018-01-04T19:51:44.443Z,28.10
2018-01-04T19:54:12.287Z,27.70
2018-01-04T19:56:40.172Z,28.33
2018-01-04T19:59:08.006Z,28.27
2018-01-04T20:01:35.889Z,28.80
2018-01-04T20:04:03.656Z,26.60
2018-01-04T20:06:31.495Z,27.37
2018-01-04T20:08:59.299Z,26.00
2018-01-04T20:11:27.093Z,26.47
2018-01-04T20:13:54.984Z,28.90
2018-01-04T20:16:22.795Z,27.37
2018-01-04T20:18:50.700Z,25.40
2018-01-04T20:21:18.536Z,26.80
2018-01-04T20:23:46.466Z,26.50
2018-01-04T20:26:14.300Z,28.87
2018-01-04T20:28:42.171Z,26.83
2018-01-04T20:31:10.082Z,25.47
2018-01-04T20:33:37.969Z,28.57
2018-01-04T20:36:05.914Z,36.97
2018-01-04T20:38:33.658Z,28.93
2018-01-04T20:41:01.533Z,27.53
2018-01-04T20:43:29.358Z,27.50
2018-01-04T20:45:57.281Z,28.47
2018-01-04T20:48:25.171Z,26.37
2018-01-04T20:50:53.122Z,26.70
2018-01-04T20:53:21.041Z,29.33
2018-01-04T20:55:48.950Z,28.33
2018-01-04T20:58:16.877Z,26.13
2018-01-04T21:00:44.785Z,28.70
2018-01-04T21:03:12.628Z,30.23
2018-01-04T21:05:40.514Z,29.27
2018-01-04T21:08:08.329Z,28.50
2018-01-04T21:10:36.211Z,27.90
2018-01-04T21:13:04.869Z,31.83
2018-01-04T21:15:32.689Z,28.57
2018-01-04T21:18:01.201Z,28.47
2018-01-04T21:20:29.110Z,29.30
2018-01-04T21:22:57.727Z,32.70
2018-01-04T21:25:25.626Z,27.53
2018-01-04T21:27:56.354Z,29.33
2018-01-04T21:30:24.985Z,30.53
2018-01-04T21:32:52.870Z,27.40
2018-01-04T21:35:21.591Z,28.57
2018-01-04T21:37:50.352Z,28.83
2018-01-04T21:40:19.249Z,26.80
2018-01-04T21:42:47.150Z,29.23
2018-01-04T21:45:15.061Z,27.07
2018-01-04T21:47:42.913Z,28.90
2018-01-04T21:50:10.757Z,27.87
2018-01-04T21:52:38.630Z,28.10
2018-01-04T21:55:07.218Z,27.20
2018-01-04T21:57:35.110Z,26.60
2018-01-04T22:00:03.004Z,27.90
2018-01-04T22:02:30.882Z,25.27
2018-01-04T22:04:58.789Z,27.00
2018-01-04T22:07:26.658Z,26.43
2018-01-04T22:09:54.526Z,25.57
2018-01-04T22:12:22.416Z,27.00
2018-01-04T22:14:50.350Z,26.50
2018-01-04T22:17:18.215Z,24.50
2018-01-04T22:19:46.117Z,27.07
2018-01-04T22:22:14.043Z,38.20
2018-01-04T22:24:41.910Z,27.43
2018-01-04T22:27:09.796Z,28.27
2018-01-04T22:29:37.681Z,26.40
2018-01-04T22:32:05.636Z,26.13
2018-01-04T22:34:33.467Z,26.30
2018-01-04T22:37:02.189Z,26.27
2018-01-04T22:39:30.117Z,25.93
2018-01-04T22:41:58.012Z,26.30
2018-01-04T22:44:25.896Z,27.17
2018-01-04T22:46:53.775Z,27.37
2018-01-04T22:49:21.664Z,29.93
2018-01-04T22:51:49.544Z,25.40
2018-01-04T22:54:17.442Z,30.03
2018-01-04T22:56:46.051Z,28.17
2018-01-04T22:59:13.999Z,27.60
2018-01-04T23:01:42.032Z,28.50
2018-01-04T23:04:09.971Z,27.43
2018-01-04T23:09:11.936Z,25.77
2018-01-04T23:11:39.831Z,25.60
2018-01-04T23:14:07.774Z,27.60
2018-01-04T23:16:35.689Z,26.87
2018-01-04T23:19:04.163Z,28.37
2018-01-04T23:21:32.079Z,26.83
2018-01-04T23:24:00.059Z,26.50
2018-01-04T23:26:28.022Z,26.90
2018-01-04T23:28:55.836Z,25.63
2018-01-04T23:31:23.624Z,23.20
2018-01-04T23:33:51.981Z,22.47
2018-01-04T23:36:19.850Z,22.17
2018-01-04T23:38:47.723Z,20.80
2018-01-04T23:41:15.614Z,21.70
2018-01-04T23:43:43.487Z,21.37
2018-01-04T23:46:11.480Z,19.77
2018-01-04T23:48:39.500Z,20.60
2018-01-04T23:51:07.441Z,20.60
2018-01-04T23:53:35.356Z,19.77
2018-01-04T23:56:03.213Z,19.87
2018-01-04T23:58:31.197Z,20.47
